Decoded Metar for EPZG (ZIELONA GORA in POLAND) (IATA:IEG) | Meteo·Mobile Aviation Weather
aviador You're here:

EPZG Decoded Metar

ZIELONA GORA in POLAND
Report Time2019-01-18 12:00:00
UTC Time2019-01-18 12:12:58
Flight Rules mvfr MVFR
Wind270° at 09 kt
W.Decomp.*RWY 24: 8.0 kt HW 4.1 kt RCW
W.Rank270° ranks 11
Current wind is above 270° avg. (7.1)
Visibility9999 m
Phenomena:N/A
Clouds:Broken 020 Hf
Expected CloudBase > 1,200 ft AGL from Temp-Dew spread
Ceiling2,000 ft
Temp00°C (ISA -15)
Dew Point-3°C (80% RH)
AAT-5.6°C
QNH1017 hPa
Density Alt-1,660 ft
Elevation194 ft
Report Wrong Elevation
Raw Report
METAR EPZG 181200Z 27009KT 240V310 9999 BKN020 00/M03 Q1017 =

Extra information for EPZG:More info

Metar Taf Metar & Taf Last 4 Metars F.Rules Stats Wind Profile Meteogram Temp Stats Airport Information Weather charts Add Link Nearby VenuesMetar ALERT Operation Metar Decoded Social comments